createdAt,value
2019-04-26T00:01:11.809Z,1.07
2019-04-26T00:03:44.821Z,3.43
2019-04-26T00:06:14.621Z,3.57
2019-04-26T00:08:46.252Z,2.57
2019-04-26T00:11:40.477Z,2.23
2019-04-26T00:14:40.340Z,2.27
2019-04-26T00:17:15.721Z,3.40
2019-04-26T00:19:44.272Z,2.77
2019-04-26T00:22:13.551Z,1.07
2019-04-26T00:24:42.324Z,3.93
2019-04-26T00:27:11.359Z,1.83
2019-04-26T00:29:39.652Z,1.30
2019-04-26T00:32:08.093Z,1.20
2019-04-26T00:34:37.015Z,2.43
2019-04-26T00:37:06.346Z,2.30
2019-04-26T00:39:34.516Z,4.17
2019-04-26T00:42:02.908Z,3.63
2019-04-26T00:44:31.704Z,2.77
2019-04-26T00:47:02.282Z,2.97
2019-04-26T00:49:43.096Z,4.00
2019-04-26T00:52:03.865Z,5.07
2019-04-26T00:54:33.212Z,2.60
2019-04-26T00:57:02.209Z,3.40
2019-04-26T00:59:31.625Z,5.70
2019-04-26T01:02:07.291Z,4.33
2019-04-26T01:04:35.770Z,3.57
2019-04-26T01:07:04.760Z,2.60
2019-04-26T01:09:33.436Z,1.93
2019-04-26T01:12:01.876Z,1.53
2019-04-26T01:14:30.150Z,2.20
2019-04-26T01:16:58.904Z,4.60
2019-04-26T01:19:30.355Z,4.90
2019-04-26T01:22:07.857Z,1.90
2019-04-26T01:24:39.594Z,3.53
2019-04-26T01:27:10.976Z,1.93
2019-04-26T01:29:42.262Z,2.80
2019-04-26T01:32:12.574Z,4.93
2019-04-26T01:34:42.919Z,4.27
2019-04-26T01:37:12.047Z,2.43
2019-04-26T01:39:48.507Z,2.13
2019-04-26T01:42:42.898Z,2.23
2019-04-26T01:45:20.298Z,3.90
2019-04-26T01:47:54.384Z,2.47
2019-04-26T01:50:27.393Z,1.60
2019-04-26T01:52:57.453Z,2.57
2019-04-26T01:55:29.646Z,4.83
2019-04-26T01:58:03.594Z,2.00
2019-04-26T02:00:41.710Z,3.37
2019-04-26T02:03:17.049Z,4.70
2019-04-26T02:05:45.578Z,4.47
2019-04-26T02:08:13.980Z,3.40
2019-04-26T02:10:42.175Z,4.30
2019-04-26T02:13:10.512Z,2.43
2019-04-26T02:15:39.417Z,3.33
2019-04-26T02:18:07.692Z,2.40
2019-04-26T02:21:36.159Z,2.73
2019-04-26T02:24:15.871Z,2.97
2019-04-26T02:26:48.208Z,2.40
2019-04-26T02:29:26.627Z,1.67
2019-04-26T02:32:02.127Z,2.47
2019-04-26T02:34:35.433Z,2.97
2019-04-26T02:37:09.417Z,4.07
2019-04-26T02:39:40.371Z,3.20
2019-04-26T02:42:45.514Z,5.43
2019-04-26T02:46:02.349Z,3.10
2019-04-26T02:49:28.570Z,5.77
2019-04-26T02:52:27.925Z,3.80
2019-04-26T02:55:27.905Z,5.87
2019-04-26T02:57:57.877Z,4.47
2019-04-26T03:00:26.386Z,8.27
2019-04-26T03:03:05.491Z,6.20
2019-04-26T03:05:39.916Z,5.33
2019-04-26T03:08:21.678Z,5.37
2019-04-26T03:10:59.380Z,4.40
2019-04-26T03:13:58.736Z,4.50
2019-04-26T03:17:01.374Z,4.10
2019-04-26T03:19:54.885Z,3.47
2019-04-26T03:22:49.431Z,3.17
2019-04-26T03:25:38.814Z,3.50
2019-04-26T03:28:36.785Z,3.43
2019-04-26T03:31:41.106Z,2.73
2019-04-26T03:34:43.430Z,4.50
2019-04-26T03:37:40.450Z,2.90
2019-04-26T03:40:39.017Z,6.73
2019-04-26T03:43:36.982Z,3.67
2019-04-26T03:46:28.310Z,4.33
2019-04-26T03:49:49.510Z,4.10
2019-04-26T03:52:44.106Z,5.23
2019-04-26T03:56:19.610Z,6.30
2019-04-26T03:59:29.398Z,5.43
2019-04-26T04:02:23.043Z,7.20
2019-04-26T04:05:11.125Z,4.83
2019-04-26T04:07:45.992Z,6.97
2019-04-26T04:10:20.913Z,7.23
2019-04-26T04:13:42.954Z,4.83
2019-04-26T04:16:49.535Z,4.57
2019-04-26T04:19:37.252Z,6.20
2019-04-26T04:22:12.294Z,5.60
2019-04-26T04:24:53.078Z,8.03
2019-04-26T04:27:49.381Z,7.73
2019-04-26T04:30:56.382Z,5.80
2019-04-26T04:34:05.747Z,5.80
2019-04-26T04:36:49.396Z,8.80
2019-04-26T04:40:08.731Z,9.17
2019-04-26T04:43:16.099Z,7.07
2019-04-26T04:46:16.242Z,6.80
2019-04-26T04:49:24.043Z,8.53
2019-04-26T04:52:31.120Z,11.87
2019-04-26T04:55:13.275Z,10.13
2019-04-26T04:58:19.242Z,8.80
2019-04-26T05:02:06.808Z,9.97
2019-04-26T05:05:15.065Z,7.97
2019-04-26T05:08:11.926Z,10.07
2019-04-26T05:11:07.313Z,8.67
2019-04-26T05:13:47.845Z,9.43
2019-04-26T05:17:04.754Z,6.10
2019-04-26T05:20:18.185Z,5.73
2019-04-26T05:23:33.022Z,8.57
2019-04-26T05:27:10.802Z,5.77
2019-04-26T05:30:27.579Z,6.33
2019-04-26T05:33:50.346Z,5.83
2019-04-26T05:36:47.484Z,8.30
2019-04-26T05:39:23.260Z,6.43
2019-04-26T05:42:56.164Z,5.23
2019-04-26T05:47:12.617Z,5.60
2019-04-26T05:50:37.617Z,4.20
2019-04-26T05:54:16.238Z,5.77
2019-04-26T05:57:32.016Z,4.80
2019-04-26T06:00:38.310Z,6.20
2019-04-26T06:04:13.328Z,4.20
2019-04-26T06:07:02.665Z,7.87
2019-04-26T06:10:12.640Z,9.17
2019-04-26T06:13:34.639Z,4.63
2019-04-26T06:16:35.893Z,7.10
2019-04-26T06:19:51.818Z,9.40
2019-04-26T06:22:57.718Z,8.43
2019-04-26T06:25:57.136Z,6.40
2019-04-26T06:28:53.701Z,8.00
2019-04-26T06:31:40.783Z,7.03
2019-04-26T06:34:22.029Z,8.23
2019-04-26T06:37:31.959Z,9.30
2019-04-26T06:40:14.887Z,9.53
2019-04-26T06:43:06.370Z,8.23
2019-04-26T06:46:19.201Z,9.47
2019-04-26T06:49:32.478Z,10.00
2019-04-26T06:52:10.359Z,11.57
2019-04-26T06:55:40.805Z,9.50
2019-04-26T06:59:03.578Z,7.97
2019-04-26T07:02:00.972Z,6.50
2019-04-26T07:05:10.466Z,8.13
2019-04-26T07:08:22.231Z,4.70
2019-04-26T07:12:41.133Z,6.40
2019-04-26T07:15:57.886Z,4.40
2019-04-26T07:18:51.233Z,4.23
2019-04-26T07:21:45.090Z,4.03
2019-04-26T07:25:17.951Z,4.33
2019-04-26T07:28:45.830Z,7.43
2019-04-26T07:31:45.188Z,5.13
2019-04-26T07:35:21.123Z,4.60
2019-04-26T07:39:10.749Z,4.03
2019-04-26T07:42:03.225Z,3.40
2019-04-26T07:45:33.024Z,3.57
2019-04-26T07:49:04.250Z,2.57
2019-04-26T07:52:13.137Z,2.83
2019-04-26T07:55:29.799Z,3.70
2019-04-26T07:59:04.139Z,3.13
2019-04-26T08:02:25.188Z,4.57
2019-04-26T08:05:09.409Z,4.73
2019-04-26T08:07:44.690Z,6.00
2019-04-26T08:10:18.427Z,7.03
2019-04-26T08:12:58.381Z,8.33
2019-04-26T08:15:59.713Z,6.87
2019-04-26T08:18:39.585Z,5.13
2019-04-26T08:21:32.871Z,6.50
2019-04-26T08:24:22.387Z,6.17
2019-04-26T08:27:18.844Z,6.50
2019-04-26T08:29:44.003Z,7.67
2019-04-26T08:32:22.097Z,7.87
2019-04-26T08:35:08.177Z,10.63
2019-04-26T08:37:48.678Z,8.50
2019-04-26T08:40:28.277Z,7.37
2019-04-26T08:43:05.852Z,7.83
2019-04-26T08:46:01.675Z,7.67
2019-04-26T08:48:27.631Z,8.30
2019-04-26T08:50:59.634Z,8.07
2019-04-26T08:53:31.163Z,8.03
2019-04-26T08:56:04.942Z,6.97
2019-04-26T08:58:38.635Z,7.20
2019-04-26T09:01:28.796Z,8.40
2019-04-26T09:04:23.439Z,7.33
2019-04-26T09:07:13.834Z,7.63
2019-04-26T09:09:57.017Z,6.47
2019-04-26T09:12:23.645Z,7.60
2019-04-26T09:14:55.388Z,9.17
2019-04-26T09:17:23.841Z,6.97
2019-04-26T09:19:51.957Z,7.00
2019-04-26T09:22:38.074Z,8.87
2019-04-26T09:25:15.611Z,7.83
2019-04-26T09:28:07.151Z,6.27
2019-04-26T09:30:53.813Z,5.77
2019-04-26T09:33:31.666Z,5.53
2019-04-26T09:35:58.075Z,4.37
2019-04-26T09:38:28.202Z,6.23
2019-04-26T09:40:57.287Z,7.20
2019-04-26T09:43:38.742Z,6.07
2019-04-26T09:46:25.085Z,5.97
2019-04-26T09:49:11.652Z,9.37
2019-04-26T09:51:40.554Z,5.77
2019-04-26T09:54:08.756Z,5.77
2019-04-26T09:56:37.220Z,6.30
2019-04-26T09:59:06.694Z,5.90
2019-04-26T10:01:35.050Z,7.10
2019-04-26T10:04:03.409Z,5.60
2019-04-26T10:06:31.886Z,5.70
2019-04-26T10:09:00.308Z,7.43
2019-04-26T10:11:35.049Z,7.63
2019-04-26T10:14:13.135Z,8.53
2019-04-26T10:16:59.004Z,6.00
2019-04-26T10:19:49.712Z,7.37
2019-04-26T10:22:19.697Z,7.37
2019-04-26T10:24:47.802Z,6.57
2019-04-26T10:27:16.075Z,7.20
2019-04-26T10:29:44.578Z,6.23
2019-04-26T10:32:13.044Z,6.97
2019-04-26T10:34:47.396Z,6.60
2019-04-26T10:37:14.785Z,6.17
2019-04-26T10:39:43.306Z,8.67
2019-04-26T10:42:11.526Z,11.87
2019-04-26T10:44:40.995Z,7.40
2019-04-26T10:47:09.469Z,7.13
2019-04-26T10:49:43.063Z,8.37
2019-04-26T10:52:36.296Z,5.47
2019-04-26T10:55:25.536Z,6.77
2019-04-26T10:57:56.627Z,9.07
2019-04-26T11:00:31.695Z,10.07
2019-04-26T11:03:03.980Z,8.93
2019-04-26T11:05:30.264Z,9.27
2019-04-26T11:07:59.046Z,8.70
2019-04-26T11:10:28.296Z,12.10
2019-04-26T11:12:56.423Z,9.43
2019-04-26T11:15:24.664Z,9.87
2019-04-26T11:17:53.401Z,13.13
2019-04-26T11:20:23.453Z,10.63
2019-04-26T11:22:51.708Z,10.67
2019-04-26T11:25:20.097Z,13.43
2019-04-26T11:27:48.665Z,11.47
2019-04-26T11:30:20.969Z,11.80
2019-04-26T11:32:47.326Z,12.13
2019-04-26T11:35:15.530Z,11.10
2019-04-26T11:37:46.215Z,10.80
2019-04-26T11:40:14.513Z,10.60
2019-04-26T11:42:45.615Z,13.17
2019-04-26T11:45:17.583Z,9.37
2019-04-26T11:47:55.825Z,12.37
2019-04-26T11:50:17.822Z,13.57
2019-04-26T11:52:46.092Z,13.03
2019-04-26T11:55:15.071Z,11.30
2019-04-26T11:57:47.021Z,10.60
2019-04-26T12:00:23.457Z,12.40
2019-04-26T12:02:52.277Z,14.07
2019-04-26T12:05:36.764Z,11.00
2019-04-26T12:08:07.696Z,13.20
2019-04-26T12:10:35.909Z,13.47
2019-04-26T12:13:05.785Z,15.20
2019-04-26T12:15:34.451Z,11.23
2019-04-26T12:18:05.494Z,11.67
2019-04-26T12:20:33.169Z,10.93
2019-04-26T12:23:01.684Z,11.20
2019-04-26T12:25:31.130Z,10.13
2019-04-26T12:28:02.067Z,9.60
2019-04-26T12:30:29.724Z,11.10
2019-04-26T12:32:57.922Z,11.23
2019-04-26T12:35:26.122Z,10.27
2019-04-26T12:37:55.715Z,11.27
2019-04-26T12:40:24.738Z,11.20
2019-04-26T12:42:53.197Z,9.67
2019-04-26T12:45:51.392Z,9.70
2019-04-26T12:48:21.679Z,8.23
2019-04-26T12:50:49.793Z,11.67
2019-04-26T12:53:18.322Z,10.20
2019-04-26T12:55:49.191Z,9.43
2019-04-26T12:58:16.681Z,6.23
2019-04-26T13:00:53.749Z,6.70
2019-04-26T13:03:20.370Z,4.10
2019-04-26T13:05:45.559Z,4.40
2019-04-26T13:08:17.003Z,3.20
2019-04-26T13:11:15.062Z,3.87
2019-04-26T13:13:44.357Z,2.70
2019-04-26T13:16:44.623Z,4.33
2019-04-26T13:19:16.069Z,4.77
2019-04-26T13:21:43.421Z,5.23
2019-04-26T13:24:11.702Z,5.50
2019-04-26T13:26:39.955Z,7.73
2019-04-26T13:29:08.514Z,6.23
2019-04-26T13:31:37.261Z,5.73
2019-04-26T13:34:05.468Z,6.57
2019-04-26T13:36:33.662Z,7.63
2019-04-26T13:39:01.939Z,6.53
2019-04-26T13:41:30.269Z,5.07
2019-04-26T13:44:01.227Z,6.43
2019-04-26T13:46:57.209Z,4.90
2019-04-26T13:49:48.278Z,5.00
2019-04-26T13:52:16.664Z,3.90
2019-04-26T13:54:45.184Z,4.77
2019-04-26T13:57:13.596Z,3.93
2019-04-26T13:59:42.050Z,4.57
2019-04-26T14:02:11.691Z,2.67
2019-04-26T14:04:42.659Z,2.75
2019-04-26T14:07:10.994Z,2.93
2019-04-26T14:09:39.158Z,5.07
2019-04-26T14:12:18.342Z,3.07
2019-04-26T14:14:37.977Z,3.03
2019-04-26T14:17:06.306Z,5.00
2019-04-26T14:19:34.470Z,4.40
2019-04-26T14:22:06.706Z,4.77
2019-04-26T14:24:41.502Z,4.73
2019-04-26T14:27:16.674Z,3.70
2019-04-26T14:29:44.981Z,4.30
2019-04-26T14:32:13.125Z,5.50
2019-04-26T14:34:41.988Z,5.00
2019-04-26T14:37:15.460Z,3.73
2019-04-26T14:39:50.129Z,5.20
2019-04-26T14:42:12.817Z,5.40
2019-04-26T14:44:49.216Z,4.70
2019-04-26T14:47:14.727Z,6.33
2019-04-26T14:49:43.138Z,6.47
2019-04-26T14:52:11.377Z,5.23
2019-04-26T14:54:41.463Z,5.40
2019-04-26T14:57:15.602Z,8.20
2019-04-26T14:59:56.951Z,4.50
2019-04-26T15:02:56.375Z,5.13
2019-04-26T15:05:44.685Z,6.03
2019-04-26T15:08:11.114Z,5.23
2019-04-26T15:10:45.674Z,6.00
2019-04-26T15:13:17.891Z,4.77
2019-04-26T15:15:39.649Z,5.27
2019-04-26T15:18:07.767Z,4.93
2019-04-26T15:20:35.888Z,5.63
2019-04-26T15:23:04.575Z,5.10
2019-04-26T15:25:33.688Z,7.63
2019-04-26T15:28:02.476Z,7.10
2019-04-26T15:30:34.278Z,6.90
2019-04-26T15:33:03.040Z,6.47
2019-04-26T15:35:32.705Z,6.33
2019-04-26T15:38:01.519Z,10.30
2019-04-26T15:40:56.926Z,10.47
2019-04-26T15:43:29.546Z,10.20
2019-04-26T15:46:29.512Z,8.37
2019-04-26T15:49:22.473Z,7.57
2019-04-26T15:51:52.015Z,10.13
2019-04-26T15:54:21.659Z,10.73
2019-04-26T15:56:53.807Z,13.00
2019-04-26T15:59:22.733Z,9.30
2019-04-26T16:01:52.094Z,10.23
2019-04-26T16:04:22.252Z,9.30
2019-04-26T16:06:52.234Z,9.77
2019-04-26T16:09:22.950Z,11.57
2019-04-26T16:11:53.169Z,9.13
2019-04-26T16:14:24.853Z,10.83
2019-04-26T16:16:52.468Z,13.67
2019-04-26T16:19:20.832Z,10.47
2019-04-26T16:21:52.810Z,11.80
2019-04-26T16:24:19.142Z,13.33
2019-04-26T16:26:53.557Z,11.70
2019-04-26T16:29:43.231Z,10.43
2019-04-26T16:32:29.944Z,13.27
2019-04-26T16:34:58.162Z,14.07
2019-04-26T16:37:26.937Z,13.60
2019-04-26T16:39:55.157Z,13.47
2019-04-26T16:42:23.673Z,13.70
2019-04-26T16:44:53.134Z,15.20
2019-04-26T16:47:23.400Z,12.17
2019-04-26T16:49:52.356Z,15.57
2019-04-26T16:52:21.066Z,15.70
2019-04-26T16:54:49.334Z,16.40
2019-04-26T16:57:17.477Z,14.60
2019-04-26T16:59:50.956Z,14.83
2019-04-26T17:02:20.965Z,17.33
2019-04-26T17:04:45.894Z,17.97
2019-04-26T17:07:21.800Z,15.57
2019-04-26T17:09:57.664Z,21.67
2019-04-26T17:12:14.905Z,18.53
2019-04-26T17:14:47.727Z,19.23
2019-04-26T17:17:14.475Z,20.47
2019-04-26T17:19:43.328Z,20.50
2019-04-26T17:22:41.807Z,18.57
2019-04-26T17:25:06.454Z,17.33
2019-04-26T17:27:34.841Z,16.90
2019-04-26T17:30:05.788Z,20.67
2019-04-26T17:32:35.090Z,20.63
2019-04-26T17:35:07.472Z,18.77
2019-04-26T17:37:35.218Z,19.43
2019-04-26T17:40:11.256Z,22.40
2019-04-26T17:42:40.785Z,23.10
2019-04-26T17:45:10.917Z,19.37
2019-04-26T17:47:40.738Z,20.53
2019-04-26T17:50:10.972Z,18.20
2019-04-26T17:52:40.835Z,21.03
2019-04-26T17:55:11.958Z,19.07
2019-04-26T17:57:43.538Z,21.47
2019-04-26T18:00:15.376Z,19.40
2019-04-26T18:02:47.924Z,23.27
2019-04-26T18:05:14.249Z,21.07
2019-04-26T18:07:50.274Z,22.03
2019-04-26T18:10:12.733Z,21.77
2019-04-26T18:12:42.823Z,23.17
2019-04-26T18:15:16.621Z,23.83
2019-04-26T18:18:00.060Z,20.63
2019-04-26T18:20:44.798Z,27.17
2019-04-26T18:23:15.417Z,22.63
2019-04-26T18:25:45.097Z,21.47
2019-04-26T18:28:15.940Z,22.97
2019-04-26T18:30:47.618Z,23.97
2019-04-26T18:33:17.565Z,25.77
2019-04-26T18:35:48.883Z,25.80
2019-04-26T18:38:15.215Z,26.40
2019-04-26T18:40:59.917Z,24.53
2019-04-26T18:43:18.884Z,23.07
2019-04-26T18:45:45.789Z,26.70
2019-04-26T18:48:14.257Z,26.33
2019-04-26T18:50:45.752Z,28.10
2019-04-26T18:53:39.679Z,27.73
2019-04-26T18:56:08.808Z,27.13
2019-04-26T18:58:38.090Z,24.93
2019-04-26T19:01:08.334Z,28.17
2019-04-26T19:03:36.902Z,25.90
2019-04-26T19:06:05.802Z,24.57
2019-04-26T19:08:45.795Z,29.87
2019-04-26T19:11:07.567Z,25.20
2019-04-26T19:14:06.518Z,29.13
2019-04-26T19:17:06.603Z,27.57
2019-04-26T19:19:53.236Z,29.53
2019-04-26T19:22:22.573Z,28.17
2019-04-26T19:24:55.885Z,29.80
2019-04-26T19:27:26.487Z,29.70
2019-04-26T19:29:51.903Z,33.67
2019-04-26T19:32:21.829Z,33.13
2019-04-26T19:34:50.306Z,28.90
2019-04-26T19:37:18.739Z,31.07
2019-04-26T19:39:47.511Z,30.50
2019-04-26T19:42:16.371Z,34.57
2019-04-26T19:44:44.857Z,30.23
2019-04-26T19:47:24.894Z,30.30
2019-04-26T19:50:16.180Z,33.87
2019-04-26T19:52:58.944Z,33.17
2019-04-26T19:55:47.441Z,34.10
2019-04-26T19:58:20.583Z,36.73
2019-04-26T20:00:49.515Z,36.07
2019-04-26T20:03:17.692Z,38.20
2019-04-26T20:05:45.985Z,38.23
2019-04-26T20:08:14.264Z,37.47
2019-04-26T20:10:45.444Z,39.10
2019-04-26T20:13:16.238Z,35.30
2019-04-26T20:15:43.249Z,37.93
2019-04-26T20:18:12.238Z,35.37
2019-04-26T20:20:41.406Z,37.37
2019-04-26T20:23:10.115Z,37.23
2019-04-26T20:25:38.402Z,38.13
2019-04-26T20:28:06.634Z,37.47
2019-04-26T20:30:57.459Z,35.23
2019-04-26T20:33:26.677Z,34.97
2019-04-26T20:35:57.422Z,38.40
2019-04-26T20:38:25.663Z,36.87
2019-04-26T20:40:53.835Z,36.00
2019-04-26T20:43:26.552Z,39.03
2019-04-26T20:46:10.920Z,38.80
2019-04-26T20:48:25.665Z,39.77
2019-04-26T20:50:55.518Z,40.67
2019-04-26T20:53:25.305Z,41.87
2019-04-26T20:55:53.483Z,40.13
2019-04-26T20:58:21.665Z,41.90
2019-04-26T21:00:54.551Z,42.33
2019-04-26T21:03:24.815Z,43.47
2019-04-26T21:05:52.817Z,40.90
2019-04-26T21:08:25.719Z,39.77
2019-04-26T21:10:52.073Z,41.07
2019-04-26T21:13:27.152Z,40.37
2019-04-26T21:15:57.883Z,41.77
2019-04-26T21:18:21.182Z,39.07
2019-04-26T21:20:52.129Z,40.23
2019-04-26T21:23:22.246Z,43.60
2019-04-26T21:26:12.393Z,44.00
2019-04-26T21:29:07.071Z,43.47
2019-04-26T21:32:03.645Z,41.83
2019-04-26T21:34:34.785Z,42.77
2019-04-26T21:37:17.295Z,38.33
2019-04-26T21:40:09.101Z,39.93
2019-04-26T21:42:37.293Z,39.13
2019-04-26T21:45:06.286Z,42.53
2019-04-26T21:47:35.491Z,43.53
2019-04-26T21:50:05.717Z,37.40
2019-04-26T21:52:34.358Z,39.13
2019-04-26T21:55:04.629Z,39.83
2019-04-26T21:57:34.870Z,40.30
2019-04-26T22:00:08.454Z,36.87
2019-04-26T22:02:37.562Z,37.93
2019-04-26T22:05:07.962Z,40.67
2019-04-26T22:07:39.532Z,38.53
2019-04-26T22:10:16.045Z,42.17
2019-04-26T22:12:45.094Z,38.00
2019-04-26T22:15:29.459Z,40.40
2019-04-26T22:18:03.198Z,37.30
2019-04-26T22:20:39.656Z,39.37
2019-04-26T22:23:33.254Z,38.33
2019-04-26T22:26:05.001Z,42.10
2019-04-26T22:28:36.078Z,40.93
2019-04-26T22:31:06.972Z,37.93
2019-04-26T22:33:34.202Z,39.40
2019-04-26T22:36:03.949Z,40.30
2019-04-26T22:38:33.955Z,41.87
2019-04-26T22:41:03.060Z,40.93
2019-04-26T22:43:54.032Z,42.37
2019-04-26T22:46:47.244Z,38.73
2019-04-26T22:49:10.839Z,37.63
2019-04-26T22:51:39.067Z,35.13
2019-04-26T22:54:07.260Z,30.67
2019-04-26T22:56:37.094Z,29.47
2019-04-26T22:59:08.014Z,28.30
2019-04-26T23:01:39.220Z,28.80
2019-04-26T23:04:06.188Z,29.37
2019-04-26T23:06:34.322Z,30.70
2019-04-26T23:09:02.933Z,29.87
2019-04-26T23:11:31.296Z,30.13
2019-04-26T23:14:28.360Z,29.80
2019-04-26T23:17:34.744Z,29.37
2019-04-26T23:20:13.680Z,30.00
2019-04-26T23:22:42.719Z,28.80
2019-04-26T23:25:11.389Z,29.63
2019-04-26T23:27:40.132Z,29.80
2019-04-26T23:30:09.691Z,31.00
2019-04-26T23:32:37.920Z,30.27
2019-04-26T23:35:06.607Z,27.00
2019-04-26T23:37:34.841Z,28.60
2019-04-26T23:40:04.013Z,31.67
2019-04-26T23:42:33.097Z,31.20
2019-04-26T23:45:04.711Z,31.53
2019-04-26T23:47:37.443Z,29.67
2019-04-26T23:50:04.102Z,29.33
2019-04-26T23:52:33.244Z,31.07
2019-04-26T23:55:07.278Z,27.73
2019-04-26T23:57:36.075Z,31.80
